Time,TemperatureF,DewpointF,PressureIn,WindDirection,WindDirectionDegrees,WindSpeedMPH,WindSpeedGustMPH,Humidity,HourlyPrecipIn,Conditions,Clouds,dailyrainin,SoftwareType,DateUTC
2013-10-09 00:01:00,63.8,49.2,30.25,North,359,10.0,20.0,59,0.00,,---,0.00,VWS V14.01,2013-10-09 04:01:00,
2013-10-09 00:03:00,63.7,49.6,30.25,NNE,15,9.0,19.0,60,0.00,,---,0.00,VWS V14.01,2013-10-09 04:03:00,
2013-10-09 00:08:00,63.7,49.6,30.25,NNE,18,11.0,19.0,60,0.00,,---,0.00,VWS V14.01,2013-10-09 04:08:00,
2013-10-09 00:13:00,63.8,50.5,30.25,NE,49,13.0,21.0,62,0.00,,---,0.00,VWS V14.01,2013-10-09 04:13:00,
2013-10-09 00:18:00,63.7,50.5,30.25,ESE,109,11.0,21.0,62,0.00,,---,0.00,VWS V14.01,2013-10-09 04:18:00,
2013-10-09 00:23:00,63.7,50.5,30.25,NNE,27,19.0,21.0,62,0.00,,---,0.00,VWS V14.01,2013-10-09 04:23:00,
2013-10-09 00:28:00,63.8,50.1,30.25,NE,45,14.0,21.0,61,0.00,,---,0.00,VWS V14.01,2013-10-09 04:28:00,
2013-10-09 00:33:00,63.8,48.8,30.25,NE,48,16.0,19.0,58,0.00,,---,0.00,VWS V14.01,2013-10-09 04:33:00,
2013-10-09 00:38:00,63.9,48.8,30.25,North,349,8.0,20.0,58,0.00,,---,0.00,VWS V14.01,2013-10-09 04:38:00,
2013-10-09 00:43:00,63.9,49.3,30.25,NE,44,11.0,20.0,59,0.00,,---,0.00,VWS V14.01,2013-10-09 04:43:00,
2013-10-09 00:48:00,63.9,49.3,30.25,ENE,59,19.0,20.0,59,0.00,,---,0.00,VWS V14.01,2013-10-09 04:48:00,
2013-10-09 00:53:00,64.0,48.9,30.25,NE,34,9.0,20.0,58,0.00,,---,0.00,VWS V14.01,2013-10-09 04:53:00,
2013-10-09 00:58:00,64.1,49.0,30.25,NNE,27,17.0,20.0,58,0.00,,---,0.00,VWS V14.01,2013-10-09 04:58:00,
2013-10-09 01:03:00,64.0,49.8,30.25,NE,43,14.0,18.0,60,0.00,,---,0.00,VWS V14.01,2013-10-09 05:03:00,
2013-10-09 01:08:00,64.0,50.7,30.25,NE,34,7.0,21.0,62,0.00,,---,0.00,VWS V14.01,2013-10-09 05:08:00,
2013-10-09 01:13:00,64.0,50.7,30.25,North,1,15.0,21.0,62,0.00,,---,0.00,VWS V14.01,2013-10-09 05:13:00,
2013-10-09 01:18:00,63.9,50.6,30.25,North,359,9.0,21.0,62,0.00,,---,0.00,VWS V14.01,2013-10-09 05:18:00,
2013-10-09 01:23:00,64.0,50.7,30.25,NE,47,16.0,21.0,62,0.00,,---,0.00,VWS V14.01,2013-10-09 05:23:00,
2013-10-09 01:28:00,64.1,51.7,30.25,NE,56,11.0,21.0,64,0.00,,---,0.00,VWS V14.01,2013-10-09 05:28:00,
2013-10-09 01:33:00,63.8,51.0,30.25,NE,53,10.0,20.0,63,0.00,,---,0.00,VWS V14.01,2013-10-09 05:33:00,
2013-10-09 01:38:00,63.8,51.4,30.25,NE,48,7.0,20.0,64,0.00,,---,0.00,VWS V14.01,2013-10-09 05:38:00,
2013-10-09 01:43:00,63.8,51.8,30.25,NE,48,12.0,20.0,65,0.00,,---,0.00,VWS V14.01,2013-10-09 05:43:00,
2013-10-09 01:48:00,63.8,51.4,30.25,ENE,73,13.0,20.0,64,0.00,,---,0.00,VWS V14.01,2013-10-09 05:48:00,
2013-10-09 01:53:00,63.8,51.8,30.25,NE,49,9.0,20.0,65,0.00,,---,0.00,VWS V14.01,2013-10-09 05:53:00,
2013-10-09 01:58:00,63.9,51.1,30.25,North,10,10.0,21.0,63,0.00,,---,0.00,VWS V14.01,2013-10-09 05:58:00,
2013-10-09 02:03:00,63.9,51.1,30.25,East,90,13.0,18.0,63,0.00,,---,0.00,VWS V14.01,2013-10-09 06:03:00,
2013-10-09 02:08:00,63.9,51.1,30.25,WSW,245,10.0,18.0,63,0.00,,---,0.00,VWS V14.01,2013-10-09 06:08:00,
2013-10-09 02:13:00,63.9,51.5,30.26,ENE,58,10.0,18.0,64,0.00,,---,0.00,VWS V14.01,2013-10-09 06:13:00,
2013-10-09 02:18:00,63.9,52.3,30.25,West,261,5.0,19.0,66,0.00,,---,0.00,VWS V14.01,2013-10-09 06:18:00,
2013-10-09 02:23:00,63.7,52.1,30.25,NE,40,17.0,19.0,66,0.00,,---,0.00,VWS V14.01,2013-10-09 06:23:00,
2013-10-09 02:28:00,63.7,52.5,30.25,NNE,23,17.0,20.0,67,0.00,,---,0.00,VWS V14.01,2013-10-09 06:28:00,
2013-10-09 02:33:00,63.7,52.1,30.25,ESE,111,7.0,19.0,66,0.00,,---,0.00,VWS V14.01,2013-10-09 06:33:00,
2013-10-09 02:38:00,63.6,52.5,30.24,ESE,103,11.0,19.0,67,0.00,,---,0.00,VWS V14.01,2013-10-09 06:38:00,
2013-10-09 02:43:00,63.4,53.5,30.24,NNE,23,18.0,22.0,70,0.00,,---,0.00,VWS V14.01,2013-10-09 06:43:00,
2013-10-09 02:48:00,63.5,54.7,30.24,ENE,59,9.0,22.0,73,0.00,,---,0.00,VWS V14.01,2013-10-09 06:48:00,
2013-10-09 02:53:00,63.3,53.8,30.24,NNW,344,10.0,22.0,71,0.00,,---,0.00,VWS V14.01,2013-10-09 06:53:00,
2013-10-09 02:58:00,63.4,53.8,30.24,East,81,14.0,22.0,71,0.00,,---,0.00,VWS V14.01,2013-10-09 06:58:00,
2013-10-09 03:03:00,63.4,53.8,30.23,ENE,68,4.0,18.0,71,0.00,,---,0.00,VWS V14.01,2013-10-09 07:03:00,
2013-10-09 03:08:00,63.3,54.1,30.23,ENE,62,13.0,20.0,72,0.00,,---,0.00,VWS V14.01,2013-10-09 07:08:00,
2013-10-09 03:13:00,63.3,54.1,30.24,East,86,12.0,20.0,72,0.00,,---,0.00,VWS V14.01,2013-10-09 07:13:00,
2013-10-09 03:18:00,63.3,54.1,30.23,ESE,110,13.0,21.0,72,0.00,,---,0.00,VWS V14.01,2013-10-09 07:18:00,
2013-10-09 03:23:00,63.3,54.9,30.23,ESE,109,12.0,21.0,74,0.00,,---,0.00,VWS V14.01,2013-10-09 07:23:00,
2013-10-09 03:28:00,63.3,54.9,30.23,NNE,18,12.0,21.0,74,0.00,,---,0.00,VWS V14.01,2013-10-09 07:28:00,
2013-10-09 03:33:00,63.2,54.0,30.23,NNE,29,18.0,23.0,72,0.00,,---,0.00,VWS V14.01,2013-10-09 07:33:00,
2013-10-09 03:38:00,63.2,54.8,30.23,ENE,58,15.0,23.0,74,0.00,,---,0.00,VWS V14.01,2013-10-09 07:38:00,
2013-10-09 03:43:00,63.1,54.7,30.23,ENE,63,18.0,23.0,74,0.00,,---,0.00,VWS V14.01,2013-10-09 07:43:00,
2013-10-09 03:48:00,63.1,55.4,30.23,East,90,14.0,23.0,76,0.00,,---,0.00,VWS V14.01,2013-10-09 07:48:00,
2013-10-09 03:53:00,63.0,54.6,30.23,East,96,11.0,23.0,74,0.00,,---,0.00,VWS V14.01,2013-10-09 07:53:00,
2013-10-09 03:58:00,62.9,54.5,30.24,NNE,21,17.0,23.0,74,0.00,,---,0.00,VWS V14.01,2013-10-09 07:58:00,
2013-10-09 04:03:00,62.7,53.5,30.24,ESE,103,18.0,21.0,72,0.00,,---,0.00,VWS V14.01,2013-10-09 08:03:00,
2013-10-09 04:08:00,62.8,54.8,30.24,ENE,72,16.0,23.0,75,0.00,,---,0.00,VWS V14.01,2013-10-09 08:08:00,
2013-10-09 04:13:00,62.6,54.2,30.25,NE,37,22.0,23.0,74,0.00,,---,0.00,VWS V14.01,2013-10-09 08:13:00,
2013-10-09 04:18:00,62.7,53.9,30.25,ENE,69,12.0,23.0,73,0.00,,---,0.00,VWS V14.01,2013-10-09 08:18:00,
2013-10-09 04:23:00,62.7,54.3,30.25,ENE,68,16.0,23.0,74,0.00,,---,0.00,VWS V14.01,2013-10-09 08:23:00,
2013-10-09 04:28:00,62.8,54.4,30.25,ESE,105,13.0,24.0,74,0.00,,---,0.00,VWS V14.01,2013-10-09 08:28:00,
2013-10-09 04:33:00,62.8,54.8,30.24,ENE,73,18.0,23.0,75,0.00,,---,0.00,VWS V14.01,2013-10-09 08:33:00,
2013-10-09 04:38:00,62.6,54.2,30.25,East,90,15.0,23.0,74,0.00,,---,0.00,VWS V14.01,2013-10-09 08:38:00,
2013-10-09 04:43:00,62.6,53.5,30.25,East,101,13.0,23.0,72,0.00,,---,0.00,VWS V14.01,2013-10-09 08:43:00,
2013-10-09 04:48:00,62.5,53.7,30.24,NNE,18,13.0,23.0,73,0.00,,---,0.00,VWS V14.01,2013-10-09 08:48:00,
2013-10-09 04:53:00,62.4,53.3,30.24,NE,39,21.0,23.0,72,0.00,,---,0.00,VWS V14.01,2013-10-09 08:53:00,
2013-10-09 04:58:00,62.5,53.7,30.24,ENE,65,18.0,24.0,73,0.00,,---,0.00,VWS V14.01,2013-10-09 08:58:00,
2013-10-09 05:03:00,62.4,52.1,30.24,NE,37,18.0,25.0,69,0.00,,---,0.00,VWS V14.01,2013-10-09 09:03:00,
2013-10-09 05:08:00,62.4,53.6,30.24,North,6,19.0,25.0,73,0.00,,---,0.00,VWS V14.01,2013-10-09 09:08:00,
2013-10-09 05:13:00,62.4,53.6,30.24,NNE,17,10.0,25.0,73,0.00,,---,0.00,VWS V14.01,2013-10-09 09:13:00,
2013-10-09 05:18:00,62.4,52.5,30.23,SE,127,12.0,25.0,70,0.00,,---,0.00,VWS V14.01,2013-10-09 09:18:00,
2013-10-09 05:23:00,62.2,52.7,30.24,NNW,347,13.0,25.0,71,0.00,,---,0.00,VWS V14.01,2013-10-09 09:23:00,
2013-10-09 05:28:00,62.2,52.7,30.24,North,4,15.0,25.0,71,0.00,,---,0.00,VWS V14.01,2013-10-09 09:28:00,
2013-10-09 05:33:00,62.1,52.2,30.24,NE,48,14.0,20.0,70,0.00,,---,0.00,VWS V14.01,2013-10-09 09:33:00,
2013-10-09 05:38:00,62.2,53.1,30.24,NE,48,17.0,23.0,72,0.00,,---,0.00,VWS V14.01,2013-10-09 09:38:00,
2013-10-09 05:43:00,62.1,52.6,30.24,NNE,30,11.0,24.0,71,0.00,,---,0.00,VWS V14.01,2013-10-09 09:43:00,
2013-10-09 05:48:00,62.1,52.2,30.25,East,89,13.0,24.0,70,0.00,,---,0.00,VWS V14.01,2013-10-09 09:48:00,
2013-10-09 05:53:00,62.0,52.1,30.25,ESE,117,11.0,25.0,70,0.00,,---,0.00,VWS V14.01,2013-10-09 09:53:00,
2013-10-09 05:58:00,62.1,53.0,30.24,ENE,67,10.0,25.0,72,0.00,,---,0.00,VWS V14.01,2013-10-09 09:58:00,
2013-10-09 06:03:00,62.0,52.9,30.24,ENE,65,15.0,22.0,72,0.00,,---,0.00,VWS V14.01,2013-10-09 10:03:00,
2013-10-09 06:08:00,62.0,53.3,30.24,WNW,290,13.0,23.0,73,0.00,,---,0.00,VWS V14.01,2013-10-09 10:08:00,
2013-10-09 06:13:00,62.1,53.0,30.24,ENE,60,19.0,23.0,72,0.00,,---,0.00,VWS V14.01,2013-10-09 10:13:00,
2013-10-09 06:18:00,62.0,52.5,30.24,East,89,20.0,23.0,71,0.00,,---,0.00,VWS V14.01,2013-10-09 10:18:00,
2013-10-09 06:23:00,62.1,53.0,30.24,NE,54,13.0,23.0,72,0.00,,---,0.00,VWS V14.01,2013-10-09 10:23:00,
2013-10-09 06:28:00,62.1,53.0,30.24,NE,56,12.0,23.0,72,0.00,,---,0.00,VWS V14.01,2013-10-09 10:28:00,
2013-10-09 06:33:00,62.0,52.5,30.24,ESE,103,15.0,19.0,71,0.00,,---,0.00,VWS V14.01,2013-10-09 10:33:00,
2013-10-09 06:38:00,62.1,53.3,30.24,East,98,12.0,21.0,73,0.00,,---,0.00,VWS V14.01,2013-10-09 10:38:00,
2013-10-09 06:43:00,62.0,53.3,30.24,NE,35,18.0,25.0,73,0.00,,---,0.00,VWS V14.01,2013-10-09 10:43:00,
2013-10-09 06:48:00,61.9,52.8,30.24,East,86,17.0,25.0,72,0.00,,---,0.00,VWS V14.01,2013-10-09 10:48:00,
2013-10-09 06:53:00,61.9,52.8,30.24,East,81,12.0,25.0,72,0.00,,---,0.00,VWS V14.01,2013-10-09 10:53:00,
2013-10-09 06:58:00,61.9,53.2,30.25,NE,37,17.0,25.0,73,0.00,,---,0.00,VWS V14.01,2013-10-09 10:58:00,
2013-10-09 07:03:00,61.8,53.1,30.25,NE,44,11.0,20.0,73,0.00,,---,0.00,VWS V14.01,2013-10-09 11:03:00,
2013-10-09 07:08:00,61.9,53.9,30.25,ENE,58,15.0,21.0,75,0.00,,---,0.00,VWS V14.01,2013-10-09 11:08:00,
2013-10-09 07:13:00,61.8,53.8,30.25,ENE,57,13.0,23.0,75,0.00,,---,0.00,VWS V14.01,2013-10-09 11:13:00,
2013-10-09 07:18:00,61.9,54.6,30.26,NE,38,21.0,23.0,77,0.00,,---,0.00,VWS V14.01,2013-10-09 11:18:00,
2013-10-09 07:23:00,61.9,53.9,30.26,ENE,76,14.0,23.0,75,0.00,,---,0.00,VWS V14.01,2013-10-09 11:23:00,
2013-10-09 07:28:00,61.9,54.3,30.26,ESE,113,16.0,23.0,76,0.00,,---,0.00,VWS V14.01,2013-10-09 11:28:00,
2013-10-09 07:33:00,61.9,54.3,30.26,NNE,30,17.0,21.0,76,0.00,,---,0.00,VWS V14.01,2013-10-09 11:33:00,
2013-10-09 07:38:00,61.8,54.5,30.26,NNE,32,15.0,23.0,77,0.00,,---,0.00,VWS V14.01,2013-10-09 11:38:00,
2013-10-09 07:43:00,61.9,55.0,30.26,NNE,30,15.0,23.0,78,0.00,,---,0.00,VWS V14.01,2013-10-09 11:43:00,
2013-10-09 07:48:00,61.9,54.6,30.27,North,1,13.0,23.0,77,0.00,,---,0.00,VWS V14.01,2013-10-09 11:48:00,
2013-10-09 07:53:00,62.0,54.7,30.27,NE,41,17.0,23.0,77,0.00,,---,0.00,VWS V14.01,2013-10-09 11:53:00,
2013-10-09 07:58:00,62.1,54.8,30.26,ESE,112,16.0,23.0,77,0.00,,---,0.00,VWS V14.01,2013-10-09 11:58:00,
2013-10-09 08:03:00,61.9,54.6,30.27,East,79,15.0,26.0,77,0.00,,---,0.00,VWS V14.01,2013-10-09 12:03:00,
2013-10-09 08:08:00,61.9,54.3,30.27,NE,34,16.0,26.0,76,0.00,,---,0.00,VWS V14.01,2013-10-09 12:08:00,
2013-10-09 08:13:00,61.9,54.6,30.27,NE,50,14.0,26.0,77,0.00,,---,0.00,VWS V14.01,2013-10-09 12:13:00,
2013-10-09 08:18:00,61.9,53.9,30.27,NE,56,11.0,26.0,75,0.00,,---,0.00,VWS V14.01,2013-10-09 12:18:00,
2013-10-09 08:23:00,61.9,53.5,30.27,ESE,109,10.0,26.0,74,0.00,,---,0.00,VWS V14.01,2013-10-09 12:23:00,
2013-10-09 08:28:00,61.9,54.3,30.27,North,6,20.0,26.0,76,0.00,,---,0.00,VWS V14.01,2013-10-09 12:28:00,
2013-10-09 08:33:00,62.1,54.8,30.28,ESE,103,12.0,19.0,77,0.00,,---,0.00,VWS V14.01,2013-10-09 12:33:00,
2013-10-09 08:38:00,62.1,54.5,30.28,NE,35,13.0,21.0,76,0.00,,---,0.00,VWS V14.01,2013-10-09 12:38:00,
2013-10-09 08:43:00,62.1,53.7,30.28,East,86,17.0,21.0,74,0.00,,---,0.00,VWS V14.01,2013-10-09 12:43:00,
2013-10-09 08:48:00,62.1,54.5,30.28,NE,36,14.0,22.0,76,0.00,,---,0.00,VWS V14.01,2013-10-09 12:48:00,
2013-10-09 08:53:00,62.2,54.9,30.28,East,97,14.0,23.0,77,0.00,,---,0.00,VWS V14.01,2013-10-09 12:53:00,
2013-10-09 08:58:00,62.2,54.9,30.28,NNE,30,14.0,24.0,77,0.00,,---,0.00,VWS V14.01,2013-10-09 12:58:00,
2013-10-09 09:03:00,62.2,54.9,30.28,WNW,293,10.0,24.0,77,0.00,,---,0.00,VWS V14.01,2013-10-09 13:03:00,
2013-10-09 09:08:00,62.2,54.9,30.28,ENE,71,21.0,24.0,77,0.00,,---,0.00,VWS V14.01,2013-10-09 13:08:00,
2013-10-09 09:13:00,62.4,55.5,30.28,NE,50,11.0,24.0,78,0.00,,---,0.00,VWS V14.01,2013-10-09 13:13:00,
2013-10-09 09:18:00,62.3,55.0,30.28,NE,55,13.0,24.0,77,0.00,,---,0.00,VWS V14.01,2013-10-09 13:18:00,
2013-10-09 09:23:00,62.3,55.0,30.28,NE,40,10.0,24.0,77,0.00,,---,0.00,VWS V14.01,2013-10-09 13:23:00,
2013-10-09 09:28:00,62.3,55.4,30.29,NE,37,12.0,26.0,78,0.00,,---,0.00,VWS V14.01,2013-10-09 13:28:00,
2013-10-09 09:33:00,62.3,55.0,30.28,NNE,31,10.0,22.0,77,0.00,,---,0.00,VWS V14.01,2013-10-09 13:33:00,
2013-10-09 09:38:00,62.3,55.0,30.29,East,80,21.0,23.0,77,0.00,,---,0.00,VWS V14.01,2013-10-09 13:38:00,
2013-10-09 09:43:00,62.3,54.7,30.29,East,89,18.0,24.0,76,0.00,,---,0.00,VWS V14.01,2013-10-09 13:43:00,
2013-10-09 09:48:00,62.4,55.1,30.29,NNE,18,17.0,24.0,77,0.00,,---,0.00,VWS V14.01,2013-10-09 13:48:00,
2013-10-09 09:53:00,62.3,54.7,30.29,ENE,57,9.0,24.0,76,0.00,,---,0.00,VWS V14.01,2013-10-09 13:53:00,
2013-10-09 09:58:00,62.4,55.5,30.29,NE,39,20.0,24.0,78,0.00,,---,0.00,VWS V14.01,2013-10-09 13:58:00,
2013-10-09 10:03:00,62.3,54.7,30.29,NE,38,17.0,22.0,76,0.00,,---,0.00,VWS V14.01,2013-10-09 14:03:00,
2013-10-09 10:08:00,62.3,53.9,30.29,NNE,17,11.0,26.0,74,0.00,,---,0.00,VWS V14.01,2013-10-09 14:08:00,
2013-10-09 10:13:00,62.4,55.1,30.29,East,88,13.0,26.0,77,0.00,,---,0.00,VWS V14.01,2013-10-09 14:13:00,
2013-10-09 10:18:00,62.5,54.8,30.29,NNE,20,15.0,26.0,76,0.00,,---,0.00,VWS V14.01,2013-10-09 14:18:00,
2013-10-09 10:23:00,62.6,55.3,30.29,NE,46,17.0,26.0,77,0.00,,---,0.00,VWS V14.01,2013-10-09 14:23:00,
2013-10-09 10:28:00,62.4,54.8,30.29,ENE,65,16.0,27.0,76,0.00,,---,0.00,VWS V14.01,2013-10-09 14:28:00,
2013-10-09 10:33:00,62.5,55.2,30.29,NE,55,18.0,18.0,77,0.00,,---,0.00,VWS V14.01,2013-10-09 14:33:00,
2013-10-09 10:38:00,62.5,54.8,30.29,NE,45,25.0,25.0,76,0.00,,---,0.00,VWS V14.01,2013-10-09 14:38:00,
2013-10-09 10:43:00,62.4,54.4,30.29,NNW,345,25.0,25.0,75,0.00,,---,0.00,VWS V14.01,2013-10-09 14:43:00,
2013-10-09 10:48:00,62.4,54.4,30.29,NE,47,16.0,25.0,75,0.00,,---,0.00,VWS V14.01,2013-10-09 14:48:00,
2013-10-09 10:53:00,62.4,54.4,30.28,ENE,63,15.0,25.0,75,0.00,,---,0.00,VWS V14.01,2013-10-09 14:53:00,
2013-10-09 10:58:00,62.4,54.8,30.29,NE,40,21.0,25.0,76,0.00,,---,0.00,VWS V14.01,2013-10-09 14:58:00,
2013-10-09 11:03:00,62.4,54.0,30.29,North,5,21.0,21.0,74,0.00,,---,0.00,VWS V14.01,2013-10-09 15:03:00,
2013-10-09 11:08:00,62.3,53.9,30.28,ENE,58,19.0,24.0,74,0.00,,---,0.00,VWS V14.01,2013-10-09 15:08:00,
2013-10-09 11:13:00,62.5,54.8,30.28,East,94,18.0,24.0,76,0.00,,---,0.00,VWS V14.01,2013-10-09 15:13:00,
2013-10-09 11:18:00,62.4,54.4,30.28,ENE,60,17.0,24.0,75,0.00,,---,0.00,VWS V14.01,2013-10-09 15:18:00,
2013-10-09 11:23:00,62.2,54.2,30.28,NNE,12,15.0,24.0,75,0.00,,---,0.00,VWS V14.01,2013-10-09 15:23:00,
2013-10-09 11:28:00,62.3,54.3,30.28,ENE,69,14.0,24.0,75,0.00,,---,0.00,VWS V14.01,2013-10-09 15:28:00,
2013-10-09 11:33:00,62.3,53.9,30.28,NNE,20,17.0,20.0,74,0.00,,---,0.00,VWS V14.01,2013-10-09 15:33:00,
2013-10-09 11:38:00,62.4,54.4,30.28,ENE,66,12.0,25.0,75,0.00,,---,0.00,VWS V14.01,2013-10-09 15:38:00,
2013-10-09 11:43:00,62.5,54.5,30.28,North,359,16.0,25.0,75,0.00,,---,0.00,VWS V14.01,2013-10-09 15:43:00,
2013-10-09 11:48:00,62.4,54.0,30.28,North,352,20.0,26.0,74,0.00,,---,0.00,VWS V14.01,2013-10-09 15:48:00,
2013-10-09 11:53:00,62.4,54.0,30.28,NE,53,13.0,26.0,74,0.00,,---,0.00,VWS V14.01,2013-10-09 15:53:00,
2013-10-09 11:58:00,62.5,54.5,30.28,NE,39,10.0,26.0,75,0.00,,---,0.00,VWS V14.01,2013-10-09 15:58:00,
2013-10-09 12:03:00,62.6,54.6,30.28,NNE,17,20.0,22.0,75,0.00,,---,0.00,VWS V14.01,2013-10-09 16:03:00,
2013-10-09 12:08:00,62.7,55.0,30.28,NNE,29,13.0,25.0,76,0.00,,---,0.00,VWS V14.01,2013-10-09 16:08:00,
2013-10-09 12:13:00,62.6,54.2,30.28,East,101,20.0,25.0,74,0.00,,---,0.00,VWS V14.01,2013-10-09 16:13:00,
2013-10-09 12:18:00,62.6,54.6,30.28,NNE,14,7.0,26.0,75,0.00,,---,0.00,VWS V14.01,2013-10-09 16:18:00,
2013-10-09 12:23:00,62.7,55.0,30.28,NNE,27,17.0,26.0,76,0.00,,---,0.00,VWS V14.01,2013-10-09 16:23:00,
2013-10-09 12:28:00,62.8,54.8,30.28,NNE,20,14.0,26.0,75,0.00,,---,0.00,VWS V14.01,2013-10-09 16:28:00,
2013-10-09 12:33:00,63.0,55.7,30.28,ESE,113,21.0,21.0,77,0.00,,---,0.00,VWS V14.01,2013-10-09 16:33:00,
2013-10-09 12:38:00,63.1,55.8,30.28,ENE,78,12.0,22.0,77,0.00,,---,0.00,VWS V14.01,2013-10-09 16:38:00,
2013-10-09 12:43:00,63.0,54.6,30.28,ENE,75,20.0,24.0,74,0.00,,---,0.00,VWS V14.01,2013-10-09 16:43:00,
2013-10-09 12:48:00,63.1,55.4,30.28,ENE,70,12.0,24.0,76,0.00,,---,0.00,VWS V14.01,2013-10-09 16:48:00,
2013-10-09 12:53:00,63.1,54.7,30.27,ESE,102,9.0,27.0,74,0.00,,---,0.00,VWS V14.01,2013-10-09 16:53:00,
2013-10-09 12:58:00,62.8,54.0,30.27,North,2,14.0,27.0,73,0.00,,---,0.00,VWS V14.01,2013-10-09 16:58:00,
2013-10-09 13:03:00,62.8,55.1,30.28,NNE,33,17.0,25.0,76,0.00,,---,0.00,VWS V14.01,2013-10-09 17:03:00,
2013-10-09 13:08:00,62.8,54.4,30.28,SE,133,15.0,25.0,74,0.00,,---,0.00,VWS V14.01,2013-10-09 17:08:00,
2013-10-09 13:13:00,62.9,55.2,30.28,NE,56,16.0,25.0,76,0.00,,---,0.00,VWS V14.01,2013-10-09 17:13:00,
2013-10-09 13:18:00,62.8,55.1,30.28,NE,34,13.0,25.0,76,0.00,,---,0.00,VWS V14.01,2013-10-09 17:18:00,
2013-10-09 13:23:00,62.8,55.1,30.28,ENE,71,15.0,25.0,76,0.00,,---,0.00,VWS V14.01,2013-10-09 17:23:00,
2013-10-09 13:28:00,62.7,55.0,30.28,NE,45,10.0,25.0,76,0.00,,---,0.00,VWS V14.01,2013-10-09 17:28:00,
2013-10-09 13:33:00,62.6,54.6,30.27,East,91,16.0,22.0,75,0.00,,---,0.00,VWS V14.01,2013-10-09 17:33:00,
2013-10-09 13:38:00,62.5,54.1,30.27,ENE,60,18.0,25.0,74,0.00,,---,0.00,VWS V14.01,2013-10-09 17:38:00,
2013-10-09 13:43:00,62.6,55.3,30.27,North,1,19.0,25.0,77,0.00,,---,0.00,VWS V14.01,2013-10-09 17:43:00,
2013-10-09 13:48:00,62.4,54.8,30.26,ENE,71,16.0,25.0,76,0.00,,---,0.00,VWS V14.01,2013-10-09 17:48:00,
2013-10-09 13:53:00,62.4,54.8,30.27,NW,308,12.0,25.0,76,0.00,,---,0.00,VWS V14.01,2013-10-09 17:53:00,
2013-10-09 13:58:00,62.4,54.8,30.27,NE,42,20.0,25.0,76,0.00,,---,0.00,VWS V14.01,2013-10-09 17:58:00,
2013-10-09 14:03:00,62.4,54.8,30.27,East,79,18.0,24.0,76,0.00,,---,0.00,VWS V14.01,2013-10-09 18:03:00,
2013-10-09 14:08:00,62.4,55.1,30.27,North,357,12.0,25.0,77,0.00,,---,0.00,VWS V14.01,2013-10-09 18:08:00,
2013-10-09 14:13:00,62.3,54.7,30.27,ENE,74,14.0,25.0,76,0.00,,---,0.00,VWS V14.01,2013-10-09 18:13:00,
2013-10-09 14:18:00,62.2,54.5,30.26,East,91,13.0,26.0,76,0.00,,---,0.00,VWS V14.01,2013-10-09 18:18:00,
2013-10-09 14:23:00,62.1,54.5,30.27,NE,42,12.0,26.0,76,0.00,,---,0.00,VWS V14.01,2013-10-09 18:23:00,
2013-10-09 14:28:00,62.1,54.1,30.26,East,89,18.0,27.0,75,0.00,,---,0.00,VWS V14.01,2013-10-09 18:28:00,
2013-10-09 14:33:00,62.2,54.9,30.26,NNE,15,15.0,22.0,77,0.00,,---,0.00,VWS V14.01,2013-10-09 18:33:00,
2013-10-09 14:38:00,62.2,54.9,30.26,NE,37,12.0,23.0,77,0.00,,---,0.00,VWS V14.01,2013-10-09 18:38:00,
2013-10-09 14:43:00,62.1,54.8,30.26,NE,41,20.0,25.0,77,0.00,,---,0.00,VWS V14.01,2013-10-09 18:43:00,
2013-10-09 14:48:00,62.0,54.4,30.26,North,6,20.0,25.0,76,0.00,,---,0.00,VWS V14.01,2013-10-09 18:48:00,
2013-10-09 14:53:00,62.0,54.7,30.26,East,82,16.0,25.0,77,0.00,,---,0.00,VWS V14.01,2013-10-09 18:53:00,
2013-10-09 14:58:00,62.1,54.8,30.26,South,169,9.0,25.0,77,0.00,,---,0.00,VWS V14.01,2013-10-09 18:58:00,
2013-10-09 15:03:00,62.1,54.8,30.27,NE,55,13.0,23.0,77,0.00,,---,0.00,VWS V14.01,2013-10-09 19:03:00,
2013-10-09 15:08:00,62.1,55.2,30.26,ENE,70,9.0,23.0,78,0.00,,---,0.00,VWS V14.01,2013-10-09 19:08:00,
2013-10-09 15:13:00,61.9,54.6,30.25,NE,37,18.0,25.0,77,0.00,,---,0.00,VWS V14.01,2013-10-09 19:13:00,
2013-10-09 15:18:00,61.8,54.5,30.25,ENE,70,14.0,26.0,77,0.00,,---,0.00,VWS V14.01,2013-10-09 19:18:00,
2013-10-09 15:23:00,61.8,54.2,30.25,ENE,73,21.0,26.0,76,0.00,,---,0.00,VWS V14.01,2013-10-09 19:23:00,
2013-10-09 15:28:00,61.8,54.5,30.25,NNE,23,20.0,26.0,77,0.00,,---,0.00,VWS V14.01,2013-10-09 19:28:00,
2013-10-09 15:33:00,61.9,54.6,30.25,NE,44,15.0,22.0,77,0.00,,---,0.00,VWS V14.01,2013-10-09 19:33:00,
2013-10-09 15:38:00,62.0,54.7,30.25,NE,44,17.0,23.0,77,0.00,,---,0.00,VWS V14.01,2013-10-09 19:38:00,
2013-10-09 15:43:00,61.9,55.0,30.25,NE,37,19.0,26.0,78,0.00,,---,0.00,VWS V14.01,2013-10-09 19:43:00,
2013-10-09 15:48:00,61.8,54.5,30.24,ENE,60,19.0,26.0,77,0.00,,---,0.00,VWS V14.01,2013-10-09 19:48:00,
2013-10-09 15:53:00,62.0,55.1,30.25,NNE,21,18.0,26.0,78,0.00,,---,0.00,VWS V14.01,2013-10-09 19:53:00,
2013-10-09 15:58:00,61.8,54.5,30.24,NE,56,9.0,26.0,77,0.00,,---,0.00,VWS V14.01,2013-10-09 19:58:00,
2013-10-09 16:03:00,61.9,55.0,30.24,ENE,76,18.0,26.0,78,0.00,,---,0.00,VWS V14.01,2013-10-09 20:03:00,
2013-10-09 16:09:00,61.8,54.5,30.25,NE,41,18.0,26.0,77,0.00,,---,0.00,VWS V14.01,2013-10-09 20:09:00,
2013-10-09 16:14:00,61.7,54.8,30.25,NNE,17,15.0,26.0,78,0.00,,---,0.00,VWS V14.01,2013-10-09 20:14:00,
2013-10-09 16:19:00,61.7,54.8,30.25,ENE,70,10.0,26.0,78,0.00,,---,0.00,VWS V14.01,2013-10-09 20:19:00,
2013-10-09 16:24:00,61.7,55.1,30.25,NNE,33,18.0,27.0,79,0.00,,---,0.00,VWS V14.01,2013-10-09 20:24:00,
2013-10-09 16:29:00,61.8,54.9,30.25,NE,42,14.0,27.0,78,0.00,,---,0.00,VWS V14.01,2013-10-09 20:29:00,
2013-10-09 16:34:00,61.7,54.8,30.25,NNE,29,19.0,26.0,78,0.00,,---,0.00,VWS V14.01,2013-10-09 20:34:00,
2013-10-09 16:39:00,61.7,54.8,30.25,NNE,27,16.0,28.0,78,0.00,,---,0.00,VWS V14.01,2013-10-09 20:39:00,
2013-10-09 16:44:00,61.7,54.8,30.25,NNE,17,16.0,28.0,78,0.00,,---,0.00,VWS V14.01,2013-10-09 20:44:00,
2013-10-09 16:49:00,61.5,54.2,30.25,NE,45,17.0,28.0,77,0.00,,---,0.00,VWS V14.01,2013-10-09 20:49:00,
2013-10-09 16:54:00,61.5,54.9,30.25,ENE,63,21.0,28.0,79,0.00,,---,0.00,VWS V14.01,2013-10-09 20:54:00,
2013-10-09 16:59:00,61.6,55.0,30.24,NE,34,21.0,28.0,79,0.00,,---,0.00,VWS V14.01,2013-10-09 20:59:00,
2013-10-09 17:04:00,61.5,54.6,30.24,NNE,25,13.0,26.0,78,0.00,,---,0.00,VWS V14.01,2013-10-09 21:04:00,
2013-10-09 17:09:00,61.6,55.0,30.24,ENE,63,20.0,27.0,79,0.00,,---,0.00,VWS V14.01,2013-10-09 21:09:00,
2013-10-09 17:14:00,61.4,54.5,30.24,ENE,69,16.0,27.0,78,0.00,,---,0.00,VWS V14.01,2013-10-09 21:14:00,
2013-10-09 17:19:00,61.3,54.4,30.24,NNE,27,18.0,27.0,78,0.00,,---,0.00,VWS V14.01,2013-10-09 21:19:00,
2013-10-09 17:24:00,61.5,55.3,30.24,ESE,115,14.0,27.0,80,0.00,,---,0.00,VWS V14.01,2013-10-09 21:24:00,
2013-10-09 17:29:00,61.5,55.3,30.24,ESE,103,9.0,27.0,80,0.00,,---,0.00,VWS V14.01,2013-10-09 21:29:00,
2013-10-09 17:34:00,61.3,54.7,30.25,NNE,14,21.0,26.0,79,0.00,,---,0.00,VWS V14.01,2013-10-09 21:34:00,
2013-10-09 17:39:00,61.3,54.7,30.25,ESE,123,7.0,26.0,79,0.00,,---,0.00,VWS V14.01,2013-10-09 21:39:00,
2013-10-09 17:44:00,61.4,54.8,30.25,NNW,345,14.0,26.0,79,0.00,,---,0.00,VWS V14.01,2013-10-09 21:44:00,
2013-10-09 17:49:00,61.4,54.8,30.25,NE,56,10.0,26.0,79,0.00,,---,0.00,VWS V14.01,2013-10-09 21:49:00,
2013-10-09 17:54:00,61.4,54.8,30.25,NNE,20,23.0,26.0,79,0.00,,---,0.00,VWS V14.01,2013-10-09 21:54:00,
2013-10-09 17:59:00,61.3,54.4,30.25,NNE,19,17.0,26.0,78,0.00,,---,0.00,VWS V14.01,2013-10-09 21:59:00,
2013-10-09 18:04:00,61.3,54.7,30.25,NE,51,6.0,23.0,79,0.00,,---,0.00,VWS V14.01,2013-10-09 22:04:00,
2013-10-09 18:09:00,61.0,55.1,30.24,NE,46,13.0,24.0,81,0.00,,---,0.00,VWS V14.01,2013-10-09 22:09:00,
2013-10-09 18:14:00,60.7,55.2,30.24,NE,38,15.0,26.0,82,0.00,,---,0.00,VWS V14.01,2013-10-09 22:14:00,
2013-10-09 18:19:00,60.8,54.9,30.23,ENE,65,16.0,26.0,81,0.00,,---,0.00,VWS V14.01,2013-10-09 22:19:00,
2013-10-09 18:24:00,60.9,54.7,30.24,ENE,74,16.0,27.0,80,0.00,,---,0.00,VWS V14.01,2013-10-09 22:24:00,
2013-10-09 18:29:00,60.8,54.9,30.23,NE,55,26.0,27.0,81,0.00,,---,0.00,VWS V14.01,2013-10-09 22:29:00,
2013-10-09 18:34:00,60.8,54.9,30.23,ENE,62,13.0,27.0,81,0.00,,---,0.00,VWS V14.01,2013-10-09 22:34:00,
2013-10-09 18:39:00,60.9,54.0,30.22,NE,40,12.0,28.0,78,0.00,,---,0.00,VWS V14.01,2013-10-09 22:39:00,
2013-10-09 18:44:00,61.1,54.9,30.22,ENE,59,20.0,28.0,80,0.00,,---,0.00,VWS V14.01,2013-10-09 22:44:00,
2013-10-09 18:49:00,61.1,55.2,30.22,NE,40,16.0,28.0,81,0.00,,---,0.00,VWS V14.01,2013-10-09 22:49:00,
2013-10-09 18:54:00,60.9,54.7,30.22,NE,56,16.0,28.0,80,0.00,,---,0.00,VWS V14.01,2013-10-09 22:54:00,
2013-10-09 18:59:00,61.0,54.8,30.22,NE,36,17.0,28.0,80,0.00,,---,0.00,VWS V14.01,2013-10-09 22:59:00,
2013-10-09 19:04:00,60.9,55.0,30.22,ENE,63,16.0,26.0,81,0.00,,---,0.00,VWS V14.01,2013-10-09 23:04:00,
2013-10-09 19:09:00,60.9,54.7,30.23,North,7,17.0,26.0,80,0.00,,---,0.00,VWS V14.01,2013-10-09 23:09:00,
2013-10-09 19:14:00,60.9,54.7,30.23,East,91,17.0,28.0,80,0.00,,---,0.00,VWS V14.01,2013-10-09 23:14:00,
2013-10-09 19:19:00,60.9,55.0,30.23,NNE,25,15.0,28.0,81,0.00,,---,0.00,VWS V14.01,2013-10-09 23:19:00,
2013-10-09 19:24:00,60.8,55.3,30.23,ENE,67,15.0,28.0,82,0.00,,---,0.00,VWS V14.01,2013-10-09 23:24:00,
2013-10-09 19:29:00,60.5,55.3,30.23,NNE,23,17.0,28.0,83,0.00,,---,0.00,VWS V14.01,2013-10-09 23:29:00,
2013-10-09 19:34:00,60.6,55.1,30.23,NNE,22,9.0,23.0,82,0.00,,---,0.00,VWS V14.01,2013-10-09 23:34:00,
2013-10-09 19:39:00,60.6,55.1,30.23,ENE,60,11.0,25.0,82,0.00,,---,0.00,VWS V14.01,2013-10-09 23:39:00,
2013-10-09 19:44:00,60.6,55.1,30.23,NNE,24,17.0,25.0,82,0.00,,---,0.00,VWS V14.01,2013-10-09 23:44:00,
2013-10-09 19:49:00,60.7,55.2,30.22,North,1,17.0,29.0,82,0.00,,---,0.00,VWS V14.01,2013-10-09 23:49:00,
2013-10-09 19:54:00,60.8,55.6,30.23,ESE,110,16.0,29.0,83,0.00,,---,0.00,VWS V14.01,2013-10-09 23:54:00,
2013-10-09 19:59:00,60.6,55.1,30.22,NE,37,12.0,29.0,82,0.00,,---,0.00,VWS V14.01,2013-10-09 23:59:00,
2013-10-09 20:04:00,60.7,55.2,30.22,North,352,17.0,22.0,82,0.00,,---,0.00,VWS V14.01,2013-10-10 00:04:00,
2013-10-09 20:09:00,60.7,54.8,30.22,East,81,18.0,27.0,81,0.00,,---,0.00,VWS V14.01,2013-10-10 00:09:00,
2013-10-09 20:14:00,60.8,54.9,30.22,NNE,30,24.0,27.0,81,0.00,,---,0.00,VWS V14.01,2013-10-10 00:14:00,
2013-10-09 20:19:00,60.8,55.6,30.22,NE,40,13.0,27.0,83,0.00,,---,0.00,VWS V14.01,2013-10-10 00:19:00,
2013-10-09 20:24:00,60.9,55.7,30.21,NE,53,22.0,27.0,83,0.00,,---,0.00,VWS V14.01,2013-10-10 00:24:00,
2013-10-09 20:29:00,60.7,55.8,30.21,NNE,31,16.0,28.0,84,0.00,,---,0.00,VWS V14.01,2013-10-10 00:29:00,
2013-10-09 20:34:00,60.8,56.3,30.21,ENE,67,19.0,26.0,85,0.00,,---,0.00,VWS V14.01,2013-10-10 00:34:00,
2013-10-09 20:39:00,60.6,55.4,30.21,East,92,16.0,28.0,83,0.00,,---,0.00,VWS V14.01,2013-10-10 00:39:00,
2013-10-09 20:44:00,60.7,55.5,30.21,NE,50,18.0,28.0,83,0.00,,---,0.00,VWS V14.01,2013-10-10 00:44:00,
2013-10-09 20:49:00,60.7,55.5,30.20,NE,42,17.0,28.0,83,0.00,,---,0.00,VWS V14.01,2013-10-10 00:49:00,
2013-10-09 20:54:00,60.7,55.5,30.21,NE,48,14.0,28.0,83,0.00,,---,0.00,VWS V14.01,2013-10-10 00:54:00,
2013-10-09 20:59:00,60.8,55.6,30.21,North,4,22.0,28.0,83,0.00,,---,0.00,VWS V14.01,2013-10-10 00:59:00,
2013-10-09 21:05:00,60.5,55.7,30.21,NNE,28,20.0,27.0,84,0.00,,---,0.00,VWS V14.01,2013-10-10 01:05:00,
2013-10-09 21:10:00,60.4,55.9,30.21,NE,35,15.0,27.0,85,0.00,,---,0.00,VWS V14.01,2013-10-10 01:10:00,
2013-10-09 21:15:00,60.2,56.0,30.21,NNE,31,14.0,27.0,86,0.01,,---,0.01,VWS V14.01,2013-10-10 01:15:00,
2013-10-09 21:20:00,59.4,55.8,30.21,NE,49,13.0,27.0,88,0.03,,---,0.03,VWS V14.01,2013-10-10 01:20:00,
2013-10-09 21:25:00,59.2,56.3,30.21,NE,39,17.0,27.0,90,0.03,,---,0.03,VWS V14.01,2013-10-10 01:25:00,
2013-10-09 21:30:00,59.3,56.4,30.21,ENE,70,13.0,27.0,90,0.03,,---,0.03,VWS V14.01,2013-10-10 01:30:00,
2013-10-09 21:35:00,59.1,55.9,30.21,NNE,13,24.0,25.0,89,0.04,,---,0.04,VWS V14.01,2013-10-10 01:35:00,
2013-10-09 21:40:00,59.3,56.4,30.20,NE,34,11.0,25.0,90,0.04,,---,0.04,VWS V14.01,2013-10-10 01:40:00,
2013-10-09 21:45:00,59.1,55.9,30.20,East,79,19.0,25.0,89,0.04,,---,0.04,VWS V14.01,2013-10-10 01:45:00,
2013-10-09 21:50:00,59.0,56.1,30.20,NNE,13,14.0,27.0,90,0.04,,---,0.04,VWS V14.01,2013-10-10 01:50:00,
2013-10-09 21:55:00,59.1,56.2,30.20,NNE,20,11.0,27.0,90,0.04,,---,0.04,VWS V14.01,2013-10-10 01:55:00,
2013-10-09 22:00:00,59.2,56.3,30.20,ENE,58,16.0,27.0,90,0.04,,---,0.04,VWS V14.01,2013-10-10 02:00:00,
2013-10-09 22:05:00,59.1,55.9,30.19,NNE,31,15.0,24.0,89,0.04,,---,0.04,VWS V14.01,2013-10-10 02:05:00,
2013-10-09 22:10:00,59.3,56.4,30.19,ENE,77,12.0,27.0,90,0.04,,---,0.04,VWS V14.01,2013-10-10 02:10:00,
2013-10-09 22:15:00,59.3,56.1,30.20,ENE,75,17.0,27.0,89,0.04,,---,0.04,VWS V14.01,2013-10-10 02:15:00,
2013-10-09 22:20:00,59.4,56.2,30.20,NE,39,13.0,27.0,89,0.05,,---,0.05,VWS V14.01,2013-10-10 02:20:00,
2013-10-09 22:24:00,59.3,56.1,30.20,NNE,15,13.0,27.0,89,0.05,,---,0.05,VWS V14.01,2013-10-10 02:24:00,
2013-10-09 22:29:00,59.3,56.4,30.20,NE,42,17.0,27.0,90,0.05,,---,0.05,VWS V14.01,2013-10-10 02:29:00,
2013-10-09 22:34:00,59.5,56.6,30.20,NE,40,18.0,22.0,90,0.03,,---,0.06,VWS V14.01,2013-10-10 02:34:00,
2013-10-09 22:39:00,59.2,56.3,30.20,NE,53,19.0,24.0,90,0.03,,---,0.06,VWS V14.01,2013-10-10 02:39:00,
2013-10-09 22:44:00,59.3,56.4,30.19,NE,42,19.0,25.0,90,0.03,,---,0.06,VWS V14.01,2013-10-10 02:44:00,
2013-10-09 22:49:00,59.3,56.7,30.19,NE,49,14.0,25.0,91,0.03,,---,0.06,VWS V14.01,2013-10-10 02:49:00,
2013-10-09 22:54:00,59.5,56.9,30.19,NNE,26,13.0,25.0,91,0.03,,---,0.06,VWS V14.01,2013-10-10 02:54:00,
2013-10-09 22:59:00,59.4,56.5,30.19,ENE,72,12.0,25.0,90,0.03,,---,0.06,VWS V14.01,2013-10-10 02:59:00,
2013-10-09 23:04:00,59.5,56.6,30.19,ENE,75,19.0,26.0,90,0.02,,---,0.06,VWS V14.01,2013-10-10 03:04:00,
2013-10-09 23:09:00,59.8,56.9,30.19,NE,40,20.0,26.0,90,0.02,,---,0.06,VWS V14.01,2013-10-10 03:09:00,
2013-10-09 23:14:00,59.9,57.0,30.19,NE,41,17.0,26.0,90,0.02,,---,0.06,VWS V14.01,2013-10-10 03:14:00,
2013-10-09 23:19:00,60.1,57.2,30.19,NE,41,15.0,26.0,90,0.02,,---,0.06,VWS V14.01,2013-10-10 03:19:00,
2013-10-09 23:24:00,60.1,57.2,30.20,NE,39,13.0,26.0,90,0.02,,---,0.06,VWS V14.01,2013-10-10 03:24:00,
2013-10-09 23:29:00,60.3,57.0,30.20,NE,44,18.0,26.0,89,0.02,,---,0.06,VWS V14.01,2013-10-10 03:29:00,
2013-10-09 23:34:00,60.5,56.9,30.20,NNE,30,19.0,23.0,88,0.01,,---,0.06,VWS V14.01,2013-10-10 03:34:00,
2013-10-09 23:39:00,60.6,57.0,30.20,NNE,23,13.0,23.0,88,0.01,,---,0.06,VWS V14.01,2013-10-10 03:39:00,
2013-10-09 23:44:00,60.6,57.0,30.19,North,354,19.0,24.0,88,0.01,,---,0.06,VWS V14.01,2013-10-10 03:44:00,
2013-10-09 23:49:00,60.4,56.8,30.19,NNE,15,24.0,24.0,88,0.02,,---,0.07,VWS V14.01,2013-10-10 03:49:00,
2013-10-09 23:54:00,60.6,57.3,30.19,NE,39,16.0,24.0,89,0.02,,---,0.07,VWS V14.01,2013-10-10 03:54:00,
2013-10-09 23:59:00,60.5,56.9,30.19,NE,46,19.0,24.0,88,0.02,,---,0.07,VWS V14.01,2013-10-10 03:59:00,